sensor_id;sensor_type;location;lat;lon;timestamp;P1;durP1;ratioP1;P2;durP2;ratioP2
3841;SDS011;1936;47.074;15.336;2024-03-02T00:00:54;88.13;;;50.37;;
3841;SDS011;1936;47.074;15.336;2024-03-02T00:02:58;81.90;;;46.80;;
3841;SDS011;1936;47.074;15.336;2024-03-02T00:05:01;98.40;;;49.17;;
3841;SDS011;1936;47.074;15.336;2024-03-02T00:07:07;81.40;;;45.47;;
3841;SDS011;1936;47.074;15.336;2024-03-02T00:09:11;84.00;;;46.43;;
3841;SDS011;1936;47.074;15.336;2024-03-02T00:11:16;90.90;;;49.50;;
3841;SDS011;1936;47.074;15.336;2024-03-02T00:13:22;96.00;;;50.00;;
3841;SDS011;1936;47.074;15.336;2024-03-02T00:15:32;100.30;;;48.43;;
3841;SDS011;1936;47.074;15.336;2024-03-02T00:17:45;93.80;;;48.90;;
3841;SDS011;1936;47.074;15.336;2024-03-02T00:19:49;94.83;;;44.77;;
3841;SDS011;1936;47.074;15.336;2024-03-02T00:21:54;99.83;;;48.97;;
3841;SDS011;1936;47.074;15.336;2024-03-02T00:23:58;87.00;;;45.87;;
3841;SDS011;1936;47.074;15.336;2024-03-02T00:26:03;88.50;;;48.77;;
3841;SDS011;1936;47.074;15.336;2024-03-02T00:28:13;92.07;;;49.33;;
3841;SDS011;1936;47.074;15.336;2024-03-02T00:30:33;99.17;;;47.97;;
3841;SDS011;1936;47.074;15.336;2024-03-02T00:32:49;91.17;;;46.40;;
3841;SDS011;1936;47.074;15.336;2024-03-02T00:34:54;102.77;;;47.07;;
3841;SDS011;1936;47.074;15.336;2024-03-02T00:36:57;126.67;;;52.03;;
3841;SDS011;1936;47.074;15.336;2024-03-02T00:39:01;91.03;;;44.10;;
3841;SDS011;1936;47.074;15.336;2024-03-02T00:41:14;88.23;;;47.00;;
3841;SDS011;1936;47.074;15.336;2024-03-02T00:43:26;85.43;;;47.00;;
3841;SDS011;1936;47.074;15.336;2024-03-02T00:45:50;90.23;;;47.83;;
3841;SDS011;1936;47.074;15.336;2024-03-02T00:47:55;95.13;;;48.23;;
3841;SDS011;1936;47.074;15.336;2024-03-02T00:49:59;115.23;;;49.60;;
3841;SDS011;1936;47.074;15.336;2024-03-02T00:52:10;100.60;;;48.47;;
3841;SDS011;1936;47.074;15.336;2024-03-02T00:54:18;116.93;;;49.20;;
3841;SDS011;1936;47.074;15.336;2024-03-02T00:56:23;100.50;;;47.00;;
3841;SDS011;1936;47.074;15.336;2024-03-02T00:58:26;83.37;;;41.30;;
3841;SDS011;1936;47.074;15.336;2024-03-02T01:00:30;92.87;;;45.37;;
3841;SDS011;1936;47.074;15.336;2024-03-02T01:02:35;87.30;;;44.07;;
3841;SDS011;1936;47.074;15.336;2024-03-02T01:04:38;94.07;;;45.43;;
3841;SDS011;1936;47.074;15.336;2024-03-02T01:06:42;89.40;;;44.03;;
3841;SDS011;1936;47.074;15.336;2024-03-02T01:08:47;91.43;;;43.40;;
3841;SDS011;1936;47.074;15.336;2024-03-02T01:10:54;73.50;;;41.80;;
3841;SDS011;1936;47.074;15.336;2024-03-02T01:12:56;84.03;;;42.13;;
3841;SDS011;1936;47.074;15.336;2024-03-02T01:15:02;82.07;;;40.80;;
3841;SDS011;1936;47.074;15.336;2024-03-02T01:17:10;75.80;;;43.00;;
3841;SDS011;1936;47.074;15.336;2024-03-02T01:19:19;71.23;;;41.13;;
3841;SDS011;1936;47.074;15.336;2024-03-02T01:21:22;76.43;;;40.27;;
3841;SDS011;1936;47.074;15.336;2024-03-02T01:23:26;85.30;;;41.33;;
3841;SDS011;1936;47.074;15.336;2024-03-02T01:25:29;83.03;;;41.00;;
3841;SDS011;1936;47.074;15.336;2024-03-02T01:27:32;79.77;;;40.07;;
3841;SDS011;1936;47.074;15.336;2024-03-02T01:29:35;82.13;;;38.77;;
3841;SDS011;1936;47.074;15.336;2024-03-02T01:31:39;79.43;;;40.37;;
3841;SDS011;1936;47.074;15.336;2024-03-02T01:33:43;77.90;;;41.80;;
3841;SDS011;1936;47.074;15.336;2024-03-02T01:35:49;67.47;;;38.27;;
3841;SDS011;1936;47.074;15.336;2024-03-02T01:37:52;77.63;;;41.20;;
3841;SDS011;1936;47.074;15.336;2024-03-02T01:39:55;66.90;;;37.60;;
3841;SDS011;1936;47.074;15.336;2024-03-02T01:41:59;77.90;;;39.10;;
3841;SDS011;1936;47.074;15.336;2024-03-02T01:44:03;80.50;;;39.00;;
3841;SDS011;1936;47.074;15.336;2024-03-02T01:46:06;77.20;;;39.13;;
3841;SDS011;1936;47.074;15.336;2024-03-02T01:48:10;84.20;;;41.17;;
3841;SDS011;1936;47.074;15.336;2024-03-02T01:50:15;78.53;;;39.57;;
3841;SDS011;1936;47.074;15.336;2024-03-02T01:52:27;76.73;;;38.13;;
3841;SDS011;1936;47.074;15.336;2024-03-02T01:54:31;67.37;;;38.50;;
3841;SDS011;1936;47.074;15.336;2024-03-02T01:56:34;75.67;;;40.40;;
3841;SDS011;1936;47.074;15.336;2024-03-02T01:58:38;74.63;;;41.17;;
3841;SDS011;1936;47.074;15.336;2024-03-02T02:00:41;60.13;;;36.40;;
3841;SDS011;1936;47.074;15.336;2024-03-02T02:02:46;68.43;;;36.60;;
3841;SDS011;1936;47.074;15.336;2024-03-02T02:04:51;71.87;;;36.40;;
3841;SDS011;1936;47.074;15.336;2024-03-02T02:06:55;67.77;;;36.27;;
3841;SDS011;1936;47.074;15.336;2024-03-02T02:09:00;59.27;;;34.40;;
3841;SDS011;1936;47.074;15.336;2024-03-02T02:11:04;74.90;;;36.93;;
3841;SDS011;1936;47.074;15.336;2024-03-02T02:13:09;68.43;;;35.57;;
3841;SDS011;1936;47.074;15.336;2024-03-02T02:15:26;66.90;;;36.53;;
3841;SDS011;1936;47.074;15.336;2024-03-02T02:17:30;68.50;;;34.17;;
3841;SDS011;1936;47.074;15.336;2024-03-02T02:19:33;61.73;;;34.90;;
3841;SDS011;1936;47.074;15.336;2024-03-02T02:21:38;65.60;;;36.20;;
3841;SDS011;1936;47.074;15.336;2024-03-02T02:23:46;60.70;;;34.40;;
3841;SDS011;1936;47.074;15.336;2024-03-02T02:25:50;69.80;;;37.00;;
3841;SDS011;1936;47.074;15.336;2024-03-02T02:27:54;75.20;;;37.43;;
3841;SDS011;1936;47.074;15.336;2024-03-02T02:29:57;74.43;;;36.70;;
3841;SDS011;1936;47.074;15.336;2024-03-02T02:32:03;73.87;;;36.10;;
3841;SDS011;1936;47.074;15.336;2024-03-02T02:34:06;63.27;;;35.13;;
3841;SDS011;1936;47.074;15.336;2024-03-02T02:36:11;65.20;;;35.07;;
3841;SDS011;1936;47.074;15.336;2024-03-02T02:38:16;62.83;;;35.20;;
3841;SDS011;1936;47.074;15.336;2024-03-02T02:40:22;58.87;;;32.57;;
3841;SDS011;1936;47.074;15.336;2024-03-02T02:42:26;63.70;;;34.07;;
3841;SDS011;1936;47.074;15.336;2024-03-02T02:44:29;62.27;;;35.10;;
3841;SDS011;1936;47.074;15.336;2024-03-02T02:46:33;62.50;;;32.30;;
3841;SDS011;1936;47.074;15.336;2024-03-02T02:48:36;63.03;;;33.90;;
3841;SDS011;1936;47.074;15.336;2024-03-02T02:50:41;67.73;;;34.77;;
3841;SDS011;1936;47.074;15.336;2024-03-02T02:52:44;66.17;;;34.53;;
3841;SDS011;1936;47.074;15.336;2024-03-02T02:54:49;54.00;;;32.90;;
3841;SDS011;1936;47.074;15.336;2024-03-02T02:56:53;64.43;;;33.87;;
3841;SDS011;1936;47.074;15.336;2024-03-02T02:58:56;56.90;;;29.73;;
3841;SDS011;1936;47.074;15.336;2024-03-02T03:01:00;57.70;;;32.63;;
3841;SDS011;1936;47.074;15.336;2024-03-02T03:03:04;58.50;;;31.37;;
3841;SDS011;1936;47.074;15.336;2024-03-02T03:05:08;63.63;;;35.33;;
3841;SDS011;1936;47.074;15.336;2024-03-02T03:07:12;65.50;;;32.97;;
3841;SDS011;1936;47.074;15.336;2024-03-02T03:09:16;65.03;;;30.90;;
3841;SDS011;1936;47.074;15.336;2024-03-02T03:11:21;67.80;;;34.53;;
3841;SDS011;1936;47.074;15.336;2024-03-02T03:13:28;66.40;;;33.73;;
3841;SDS011;1936;47.074;15.336;2024-03-02T03:15:30;55.07;;;31.23;;
3841;SDS011;1936;47.074;15.336;2024-03-02T03:17:34;63.70;;;33.60;;
3841;SDS011;1936;47.074;15.336;2024-03-02T03:19:39;53.70;;;31.27;;
3841;SDS011;1936;47.074;15.336;2024-03-02T03:21:43;61.30;;;29.93;;
3841;SDS011;1936;47.074;15.336;2024-03-02T03:23:46;63.63;;;31.40;;
3841;SDS011;1936;47.074;15.336;2024-03-02T03:25:50;60.83;;;31.00;;
3841;SDS011;1936;47.074;15.336;2024-03-02T03:27:55;61.97;;;33.90;;
3841;SDS011;1936;47.074;15.336;2024-03-02T03:29:58;51.93;;;29.50;;
3841;SDS011;1936;47.074;15.336;2024-03-02T03:32:02;48.53;;;31.10;;
3841;SDS011;1936;47.074;15.336;2024-03-02T03:34:06;58.17;;;31.50;;
3841;SDS011;1936;47.074;15.336;2024-03-02T03:36:09;62.97;;;30.33;;
3841;SDS011;1936;47.074;15.336;2024-03-02T03:38:12;53.23;;;29.93;;
3841;SDS011;1936;47.074;15.336;2024-03-02T03:40:15;46.47;;;27.40;;
3841;SDS011;1936;47.074;15.336;2024-03-02T03:42:19;53.03;;;31.53;;
3841;SDS011;1936;47.074;15.336;2024-03-02T03:44:24;58.23;;;29.93;;
3841;SDS011;1936;47.074;15.336;2024-03-02T03:46:27;49.60;;;28.87;;
3841;SDS011;1936;47.074;15.336;2024-03-02T03:48:30;53.87;;;29.83;;
3841;SDS011;1936;47.074;15.336;2024-03-02T03:50:34;56.50;;;30.23;;
3841;SDS011;1936;47.074;15.336;2024-03-02T03:52:38;50.63;;;27.27;;
3841;SDS011;1936;47.074;15.336;2024-03-02T03:54:42;50.23;;;26.47;;
3841;SDS011;1936;47.074;15.336;2024-03-02T03:56:46;41.53;;;26.00;;
3841;SDS011;1936;47.074;15.336;2024-03-02T03:58:50;51.23;;;29.07;;
3841;SDS011;1936;47.074;15.336;2024-03-02T04:00:55;46.77;;;25.83;;
3841;SDS011;1936;47.074;15.336;2024-03-02T04:02:59;56.53;;;29.17;;
3841;SDS011;1936;47.074;15.336;2024-03-02T04:05:02;45.40;;;26.13;;
3841;SDS011;1936;47.074;15.336;2024-03-02T04:07:10;52.43;;;26.70;;
3841;SDS011;1936;47.074;15.336;2024-03-02T04:09:14;53.40;;;30.00;;
3841;SDS011;1936;47.074;15.336;2024-03-02T04:11:17;48.70;;;28.80;;
3841;SDS011;1936;47.074;15.336;2024-03-02T04:13:21;47.77;;;27.30;;
3841;SDS011;1936;47.074;15.336;2024-03-02T04:15:25;64.47;;;30.43;;
3841;SDS011;1936;47.074;15.336;2024-03-02T04:17:30;46.37;;;28.60;;
3841;SDS011;1936;47.074;15.336;2024-03-02T04:19:34;54.23;;;29.70;;
3841;SDS011;1936;47.074;15.336;2024-03-02T04:21:38;57.17;;;29.03;;
3841;SDS011;1936;47.074;15.336;2024-03-02T04:23:42;54.33;;;29.07;;
3841;SDS011;1936;47.074;15.336;2024-03-02T04:25:46;54.53;;;28.67;;
3841;SDS011;1936;47.074;15.336;2024-03-02T04:27:50;56.17;;;30.90;;
3841;SDS011;1936;47.074;15.336;2024-03-02T04:29:53;53.03;;;27.97;;
3841;SDS011;1936;47.074;15.336;2024-03-02T04:31:56;49.23;;;26.37;;
3841;SDS011;1936;47.074;15.336;2024-03-02T04:34:01;54.00;;;32.30;;
3841;SDS011;1936;47.074;15.336;2024-03-02T04:36:05;43.17;;;28.30;;
3841;SDS011;1936;47.074;15.336;2024-03-02T04:38:11;49.70;;;26.40;;
3841;SDS011;1936;47.074;15.336;2024-03-02T04:40:14;55.10;;;28.73;;
3841;SDS011;1936;47.074;15.336;2024-03-02T04:42:18;49.83;;;29.00;;
3841;SDS011;1936;47.074;15.336;2024-03-02T04:44:20;53.27;;;28.30;;
3841;SDS011;1936;47.074;15.336;2024-03-02T04:46:24;48.50;;;27.53;;
3841;SDS011;1936;47.074;15.336;2024-03-02T04:48:28;56.03;;;29.83;;
3841;SDS011;1936;47.074;15.336;2024-03-02T04:50:34;53.23;;;29.50;;
3841;SDS011;1936;47.074;15.336;2024-03-02T04:52:38;49.67;;;26.67;;
3841;SDS011;1936;47.074;15.336;2024-03-02T04:54:42;50.10;;;27.73;;
3841;SDS011;1936;47.074;15.336;2024-03-02T04:57:00;45.53;;;27.50;;
3841;SDS011;1936;47.074;15.336;2024-03-02T04:59:04;42.57;;;26.30;;
3841;SDS011;1936;47.074;15.336;2024-03-02T05:01:08;46.00;;;25.00;;
3841;SDS011;1936;47.074;15.336;2024-03-02T05:03:17;53.67;;;28.20;;
3841;SDS011;1936;47.074;15.336;2024-03-02T05:05:20;57.27;;;30.37;;
3841;SDS011;1936;47.074;15.336;2024-03-02T05:07:25;53.83;;;29.40;;
3841;SDS011;1936;47.074;15.336;2024-03-02T05:09:28;46.33;;;28.30;;
3841;SDS011;1936;47.074;15.336;2024-03-02T05:11:32;52.50;;;29.00;;
3841;SDS011;1936;47.074;15.336;2024-03-02T05:13:56;56.47;;;28.73;;
3841;SDS011;1936;47.074;15.336;2024-03-02T05:15:59;50.37;;;28.37;;
3841;SDS011;1936;47.074;15.336;2024-03-02T05:18:03;57.07;;;29.00;;
3841;SDS011;1936;47.074;15.336;2024-03-02T05:20:08;56.65;;;30.83;;
3841;SDS011;1936;47.074;15.336;2024-03-02T05:22:12;67.63;;;33.63;;
3841;SDS011;1936;47.074;15.336;2024-03-02T05:24:18;67.17;;;29.23;;
3841;SDS011;1936;47.074;15.336;2024-03-02T05:26:22;53.93;;;30.10;;
3841;SDS011;1936;47.074;15.336;2024-03-02T05:28:25;63.27;;;31.63;;
3841;SDS011;1936;47.074;15.336;2024-03-02T05:30:30;52.83;;;26.80;;
3841;SDS011;1936;47.074;15.336;2024-03-02T05:32:34;50.80;;;28.60;;
3841;SDS011;1936;47.074;15.336;2024-03-02T05:34:41;59.13;;;28.53;;
3841;SDS011;1936;47.074;15.336;2024-03-02T05:36:47;51.63;;;29.17;;
3841;SDS011;1936;47.074;15.336;2024-03-02T05:38:52;60.17;;;27.90;;
3841;SDS011;1936;47.074;15.336;2024-03-02T05:40:59;50.70;;;27.83;;
3841;SDS011;1936;47.074;15.336;2024-03-02T05:43:04;51.13;;;29.90;;
3841;SDS011;1936;47.074;15.336;2024-03-02T05:45:08;51.17;;;27.50;;
3841;SDS011;1936;47.074;15.336;2024-03-02T05:47:11;48.93;;;26.23;;
3841;SDS011;1936;47.074;15.336;2024-03-02T05:49:15;52.93;;;28.13;;
3841;SDS011;1936;47.074;15.336;2024-03-02T05:51:19;52.83;;;30.50;;
3841;SDS011;1936;47.074;15.336;2024-03-02T05:53:23;51.87;;;27.23;;
3841;SDS011;1936;47.074;15.336;2024-03-02T05:55:26;48.63;;;28.23;;
3841;SDS011;1936;47.074;15.336;2024-03-02T05:57:32;52.97;;;24.63;;
3841;SDS011;1936;47.074;15.336;2024-03-02T05:59:49;54.03;;;27.73;;
3841;SDS011;1936;47.074;15.336;2024-03-02T06:01:53;54.47;;;24.90;;
3841;SDS011;1936;47.074;15.336;2024-03-02T06:03:56;51.63;;;27.63;;
3841;SDS011;1936;47.074;15.336;2024-03-02T06:06:00;58.43;;;27.67;;
3841;SDS011;1936;47.074;15.336;2024-03-02T06:08:04;50.17;;;27.73;;
3841;SDS011;1936;47.074;15.336;2024-03-02T06:10:07;57.43;;;30.27;;
3841;SDS011;1936;47.074;15.336;2024-03-02T06:12:14;51.70;;;28.87;;
3841;SDS011;1936;47.074;15.336;2024-03-02T06:14:20;53.60;;;30.50;;
3841;SDS011;1936;47.074;15.336;2024-03-02T06:16:23;57.10;;;28.30;;
3841;SDS011;1936;47.074;15.336;2024-03-02T06:18:26;52.03;;;27.00;;
3841;SDS011;1936;47.074;15.336;2024-03-02T06:20:29;55.67;;;27.10;;
3841;SDS011;1936;47.074;15.336;2024-03-02T06:22:37;52.93;;;31.10;;
3841;SDS011;1936;47.074;15.336;2024-03-02T06:24:41;52.50;;;30.07;;
3841;SDS011;1936;47.074;15.336;2024-03-02T06:26:44;57.43;;;28.30;;
3841;SDS011;1936;47.074;15.336;2024-03-02T06:28:48;48.80;;;25.80;;
3841;SDS011;1936;47.074;15.336;2024-03-02T06:30:54;54.23;;;27.77;;
3841;SDS011;1936;47.074;15.336;2024-03-02T06:32:58;46.80;;;27.77;;
3841;SDS011;1936;47.074;15.336;2024-03-02T06:35:02;48.13;;;26.07;;
3841;SDS011;1936;47.074;15.336;2024-03-02T06:37:06;45.80;;;26.77;;
3841;SDS011;1936;47.074;15.336;2024-03-02T06:39:10;55.03;;;28.57;;
3841;SDS011;1936;47.074;15.336;2024-03-02T06:41:14;49.60;;;27.10;;
3841;SDS011;1936;47.074;15.336;2024-03-02T06:43:17;41.13;;;25.13;;
3841;SDS011;1936;47.074;15.336;2024-03-02T06:45:19;39.13;;;24.47;;
3841;SDS011;1936;47.074;15.336;2024-03-02T06:47:25;41.93;;;26.27;;
3841;SDS011;1936;47.074;15.336;2024-03-02T06:49:27;46.93;;;25.50;;
3841;SDS011;1936;47.074;15.336;2024-03-02T06:51:31;42.00;;;26.83;;
3841;SDS011;1936;47.074;15.336;2024-03-02T06:53:37;44.03;;;25.87;;
3841;SDS011;1936;47.074;15.336;2024-03-02T06:55:41;44.03;;;24.73;;
3841;SDS011;1936;47.074;15.336;2024-03-02T06:57:46;42.93;;;26.07;;
3841;SDS011;1936;47.074;15.336;2024-03-02T06:59:49;37.10;;;23.43;;
3841;SDS011;1936;47.074;15.336;2024-03-02T07:01:55;44.60;;;25.80;;
3841;SDS011;1936;47.074;15.336;2024-03-02T07:04:00;48.07;;;22.80;;
3841;SDS011;1936;47.074;15.336;2024-03-02T07:06:04;37.17;;;23.03;;
3841;SDS011;1936;47.074;15.336;2024-03-02T07:08:08;36.43;;;23.00;;
3841;SDS011;1936;47.074;15.336;2024-03-02T07:10:11;37.10;;;24.70;;
3841;SDS011;1936;47.074;15.336;2024-03-02T07:12:15;34.17;;;22.77;;
3841;SDS011;1936;47.074;15.336;2024-03-02T07:14:18;33.20;;;22.63;;
3841;SDS011;1936;47.074;15.336;2024-03-02T07:16:21;34.40;;;22.93;;
3841;SDS011;1936;47.074;15.336;2024-03-02T07:18:29;30.23;;;21.60;;
3841;SDS011;1936;47.074;15.336;2024-03-02T07:20:34;30.53;;;21.53;;
3841;SDS011;1936;47.074;15.336;2024-03-02T07:22:40;32.90;;;22.77;;
3841;SDS011;1936;47.074;15.336;2024-03-02T07:24:45;28.33;;;18.50;;
3841;SDS011;1936;47.074;15.336;2024-03-02T07:26:49;25.67;;;19.23;;
3841;SDS011;1936;47.074;15.336;2024-03-02T07:28:55;31.50;;;20.63;;
3841;SDS011;1936;47.074;15.336;2024-03-02T07:30:59;31.33;;;20.53;;
3841;SDS011;1936;47.074;15.336;2024-03-02T07:33:03;27.93;;;18.97;;
3841;SDS011;1936;47.074;15.336;2024-03-02T07:35:07;24.80;;;19.90;;
3841;SDS011;1936;47.074;15.336;2024-03-02T07:37:11;28.43;;;18.63;;
3841;SDS011;1936;47.074;15.336;2024-03-02T07:39:15;27.67;;;19.20;;
3841;SDS011;1936;47.074;15.336;2024-03-02T07:41:18;26.23;;;19.50;;
3841;SDS011;1936;47.074;15.336;2024-03-02T07:43:22;25.67;;;18.47;;
3841;SDS011;1936;47.074;15.336;2024-03-02T07:45:25;24.37;;;18.00;;
3841;SDS011;1936;47.074;15.336;2024-03-02T07:47:29;29.23;;;19.23;;
3841;SDS011;1936;47.074;15.336;2024-03-02T07:49:33;21.70;;;17.80;;
3841;SDS011;1936;47.074;15.336;2024-03-02T07:51:37;22.17;;;18.90;;
3841;SDS011;1936;47.074;15.336;2024-03-02T07:53:42;26.13;;;17.53;;
3841;SDS011;1936;47.074;15.336;2024-03-02T07:55:48;22.30;;;17.30;;
3841;SDS011;1936;47.074;15.336;2024-03-02T07:57:51;21.00;;;17.47;;
3841;SDS011;1936;47.074;15.336;2024-03-02T07:59:55;24.73;;;18.80;;
3841;SDS011;1936;47.074;15.336;2024-03-02T08:02:01;22.50;;;17.73;;
3841;SDS011;1936;47.074;15.336;2024-03-02T08:04:04;23.57;;;19.47;;
3841;SDS011;1936;47.074;15.336;2024-03-02T08:06:07;23.10;;;18.00;;
3841;SDS011;1936;47.074;15.336;2024-03-02T08:08:11;21.50;;;17.13;;
3841;SDS011;1936;47.074;15.336;2024-03-02T08:10:16;22.60;;;18.20;;
3841;SDS011;1936;47.074;15.336;2024-03-02T08:12:19;19.50;;;16.67;;
3841;SDS011;1936;47.074;15.336;2024-03-02T08:14:25;20.40;;;17.40;;
3841;SDS011;1936;47.074;15.336;2024-03-02T08:16:28;21.33;;;17.47;;
3841;SDS011;1936;47.074;15.336;2024-03-02T08:18:32;18.50;;;15.80;;
3841;SDS011;1936;47.074;15.336;2024-03-02T08:20:35;20.40;;;16.00;;
3841;SDS011;1936;47.074;15.336;2024-03-02T08:22:39;17.83;;;15.73;;
3841;SDS011;1936;47.074;15.336;2024-03-02T08:24:42;17.97;;;16.03;;
3841;SDS011;1936;47.074;15.336;2024-03-02T08:26:46;17.37;;;15.60;;
3841;SDS011;1936;47.074;15.336;2024-03-02T08:28:50;17.83;;;15.93;;
3841;SDS011;1936;47.074;15.336;2024-03-02T08:30:54;17.03;;;15.23;;
3841;SDS011;1936;47.074;15.336;2024-03-02T08:32:59;18.33;;;15.20;;
3841;SDS011;1936;47.074;15.336;2024-03-02T08:35:03;14.90;;;13.50;;
3841;SDS011;1936;47.074;15.336;2024-03-02T08:37:06;18.20;;;15.63;;
3841;SDS011;1936;47.074;15.336;2024-03-02T08:39:09;16.27;;;14.57;;
3841;SDS011;1936;47.074;15.336;2024-03-02T08:41:17;16.93;;;14.80;;
3841;SDS011;1936;47.074;15.336;2024-03-02T08:43:22;18.97;;;15.77;;
3841;SDS011;1936;47.074;15.336;2024-03-02T08:45:26;16.80;;;15.17;;
3841;SDS011;1936;47.074;15.336;2024-03-02T08:47:30;16.73;;;14.40;;
3841;SDS011;1936;47.074;15.336;2024-03-02T08:49:34;16.10;;;14.40;;
3841;SDS011;1936;47.074;15.336;2024-03-02T08:51:38;15.17;;;13.67;;
3841;SDS011;1936;47.074;15.336;2024-03-02T08:53:41;17.87;;;16.07;;
3841;SDS011;1936;47.074;15.336;2024-03-02T08:55:45;18.93;;;17.00;;
3841;SDS011;1936;47.074;15.336;2024-03-02T08:57:49;18.03;;;15.97;;
3841;SDS011;1936;47.074;15.336;2024-03-02T08:59:54;16.10;;;14.53;;
3841;SDS011;1936;47.074;15.336;2024-03-02T09:01:58;16.30;;;14.60;;
3841;SDS011;1936;47.074;15.336;2024-03-02T09:04:01;15.67;;;14.07;;
3841;SDS011;1936;47.074;15.336;2024-03-02T09:06:05;14.20;;;12.80;;
3841;SDS011;1936;47.074;15.336;2024-03-02T09:08:07;15.20;;;13.73;;
3841;SDS011;1936;47.074;15.336;2024-03-02T09:10:11;15.83;;;14.23;;
3841;SDS011;1936;47.074;15.336;2024-03-02T09:12:15;19.83;;;17.47;;
3841;SDS011;1936;47.074;15.336;2024-03-02T09:14:18;18.80;;;16.50;;
3841;SDS011;1936;47.074;15.336;2024-03-02T09:16:23;17.87;;;16.00;;
3841;SDS011;1936;47.074;15.336;2024-03-02T09:18:32;21.83;;;18.40;;
3841;SDS011;1936;47.074;15.336;2024-03-02T09:20:36;20.60;;;16.47;;
3841;SDS011;1936;47.074;15.336;2024-03-02T09:22:39;20.07;;;18.03;;
3841;SDS011;1936;47.074;15.336;2024-03-02T09:24:43;17.47;;;15.57;;
3841;SDS011;1936;47.074;15.336;2024-03-02T09:26:46;22.00;;;16.17;;
3841;SDS011;1936;47.074;15.336;2024-03-02T09:28:50;20.03;;;16.47;;
3841;SDS011;1936;47.074;15.336;2024-03-02T09:30:54;22.60;;;16.63;;
3841;SDS011;1936;47.074;15.336;2024-03-02T09:33:02;20.10;;;17.50;;
3841;SDS011;1936;47.074;15.336;2024-03-02T09:35:09;22.00;;;17.77;;
3841;SDS011;1936;47.074;15.336;2024-03-02T09:37:13;19.10;;;15.90;;
3841;SDS011;1936;47.074;15.336;2024-03-02T09:39:16;23.37;;;17.57;;
3841;SDS011;1936;47.074;15.336;2024-03-02T09:41:19;21.00;;;18.70;;
3841;SDS011;1936;47.074;15.336;2024-03-02T09:43:23;23.10;;;18.83;;
3841;SDS011;1936;47.074;15.336;2024-03-02T09:45:26;22.17;;;19.53;;
3841;SDS011;1936;47.074;15.336;2024-03-02T09:47:29;25.07;;;19.53;;
3841;SDS011;1936;47.074;15.336;2024-03-02T09:49:37;23.97;;;18.60;;
3841;SDS011;1936;47.074;15.336;2024-03-02T09:51:41;20.40;;;17.77;;
3841;SDS011;1936;47.074;15.336;2024-03-02T09:53:49;23.70;;;19.30;;
3841;SDS011;1936;47.074;15.336;2024-03-02T09:55:54;23.27;;;18.80;;
3841;SDS011;1936;47.074;15.336;2024-03-02T09:57:58;21.47;;;18.73;;
3841;SDS011;1936;47.074;15.336;2024-03-02T10:00:01;22.77;;;18.10;;
3841;SDS011;1936;47.074;15.336;2024-03-02T10:02:05;26.90;;;20.53;;
3841;SDS011;1936;47.074;15.336;2024-03-02T10:04:09;24.20;;;19.60;;
3841;SDS011;1936;47.074;15.336;2024-03-02T10:06:21;20.90;;;18.10;;
3841;SDS011;1936;47.074;15.336;2024-03-02T10:08:25;21.80;;;19.30;;
3841;SDS011;1936;47.074;15.336;2024-03-02T10:10:35;25.50;;;18.60;;
3841;SDS011;1936;47.074;15.336;2024-03-02T10:12:41;21.37;;;18.83;;
3841;SDS011;1936;47.074;15.336;2024-03-02T10:14:45;23.37;;;18.37;;
3841;SDS011;1936;47.074;15.336;2024-03-02T10:16:50;25.17;;;18.87;;
3841;SDS011;1936;47.074;15.336;2024-03-02T10:18:53;20.63;;;16.33;;
3841;SDS011;1936;47.074;15.336;2024-03-02T10:20:59;19.30;;;16.37;;
3841;SDS011;1936;47.074;15.336;2024-03-02T10:23:17;22.70;;;18.20;;
3841;SDS011;1936;47.074;15.336;2024-03-02T10:25:29;18.80;;;16.90;;
3841;SDS011;1936;47.074;15.336;2024-03-02T10:27:51;19.90;;;14.70;;
3841;SDS011;1936;47.074;15.336;2024-03-02T10:29:55;19.47;;;15.20;;
3841;SDS011;1936;47.074;15.336;2024-03-02T10:31:58;19.80;;;16.53;;
3841;SDS011;1936;47.074;15.336;2024-03-02T10:34:05;16.00;;;13.03;;
3841;SDS011;1936;47.074;15.336;2024-03-02T10:36:09;16.40;;;14.70;;
3841;SDS011;1936;47.074;15.336;2024-03-02T10:38:12;18.13;;;14.80;;
3841;SDS011;1936;47.074;15.336;2024-03-02T10:40:17;13.30;;;11.90;;
3841;SDS011;1936;47.074;15.336;2024-03-02T10:42:23;17.60;;;14.47;;
3841;SDS011;1936;47.074;15.336;2024-03-02T10:44:27;15.70;;;14.00;;
3841;SDS011;1936;47.074;15.336;2024-03-02T10:46:31;14.90;;;13.40;;
3841;SDS011;1936;47.074;15.336;2024-03-02T10:48:36;12.73;;;10.60;;
3841;SDS011;1936;47.074;15.336;2024-03-02T10:50:42;16.30;;;10.03;;
3841;SDS011;1936;47.074;15.336;2024-03-02T10:52:46;11.17;;;10.07;;
3841;SDS011;1936;47.074;15.336;2024-03-02T10:54:49;11.27;;;10.07;;
3841;SDS011;1936;47.074;15.336;2024-03-02T10:56:55;16.23;;;9.23;;
3841;SDS011;1936;47.074;15.336;2024-03-02T10:59:03;12.17;;;10.00;;
3841;SDS011;1936;47.074;15.336;2024-03-02T11:01:13;10.77;;;8.27;;
3841;SDS011;1936;47.074;15.336;2024-03-02T11:03:19;12.53;;;9.57;;
3841;SDS011;1936;47.074;15.336;2024-03-02T11:05:26;11.47;;;10.17;;
3841;SDS011;1936;47.074;15.336;2024-03-02T11:07:34;12.53;;;10.90;;
3841;SDS011;1936;47.074;15.336;2024-03-02T11:09:48;17.33;;;10.90;;
3841;SDS011;1936;47.074;15.336;2024-03-02T11:12:02;11.83;;;10.70;;
3841;SDS011;1936;47.074;15.336;2024-03-02T11:16:39;12.00;;;10.57;;
3841;SDS011;1936;47.074;15.336;2024-03-02T11:18:43;11.57;;;10.07;;
3841;SDS011;1936;47.074;15.336;2024-03-02T11:20:50;11.80;;;10.60;;
3841;SDS011;1936;47.074;15.336;2024-03-02T11:22:54;13.07;;;11.77;;
3841;SDS011;1936;47.074;15.336;2024-03-02T11:24:57;13.37;;;11.97;;
3841;SDS011;1936;47.074;15.336;2024-03-02T11:27:03;12.70;;;11.43;;
3841;SDS011;1936;47.074;15.336;2024-03-02T11:29:21;12.93;;;11.63;;
3841;SDS011;1936;47.074;15.336;2024-03-02T11:31:57;13.87;;;12.20;;
3841;SDS011;1936;47.074;15.336;2024-03-02T11:34:11;11.70;;;10.60;;
3841;SDS011;1936;47.074;15.336;2024-03-02T11:36:20;14.73;;;13.07;;
3841;SDS011;1936;47.074;15.336;2024-03-02T11:38:27;14.77;;;13.27;;
3841;SDS011;1936;47.074;15.336;2024-03-02T11:40:34;12.50;;;11.30;;
3841;SDS011;1936;47.074;15.336;2024-03-02T11:42:39;13.57;;;10.70;;
3841;SDS011;1936;47.074;15.336;2024-03-02T11:44:45;12.17;;;10.93;;
3841;SDS011;1936;47.074;15.336;2024-03-02T11:46:51;13.03;;;10.83;;
3841;SDS011;1936;47.074;15.336;2024-03-02T11:48:56;11.47;;;10.10;;
3841;SDS011;1936;47.074;15.336;2024-03-02T11:50:59;14.30;;;11.60;;
3841;SDS011;1936;47.074;15.336;2024-03-02T11:53:02;18.53;;;12.63;;
3841;SDS011;1936;47.074;15.336;2024-03-02T11:55:09;11.90;;;10.77;;
3841;SDS011;1936;47.074;15.336;2024-03-02T11:57:14;10.17;;;9.10;;
3841;SDS011;1936;47.074;15.336;2024-03-02T11:59:20;10.83;;;9.70;;
3841;SDS011;1936;47.074;15.336;2024-03-02T12:01:24;11.67;;;10.47;;
3841;SDS011;1936;47.074;15.336;2024-03-02T12:03:28;13.40;;;10.47;;
3841;SDS011;1936;47.074;15.336;2024-03-02T12:05:32;10.20;;;8.63;;
3841;SDS011;1936;47.074;15.336;2024-03-02T12:07:36;11.73;;;9.23;;
3841;SDS011;1936;47.074;15.336;2024-03-02T12:09:39;12.90;;;8.80;;
3841;SDS011;1936;47.074;15.336;2024-03-02T12:11:43;9.43;;;8.50;;
3841;SDS011;1936;47.074;15.336;2024-03-02T12:13:52;10.43;;;8.63;;
3841;SDS011;1936;47.074;15.336;2024-03-02T12:15:58;11.70;;;9.03;;
3841;SDS011;1936;47.074;15.336;2024-03-02T12:18:02;12.60;;;10.27;;
3841;SDS011;1936;47.074;15.336;2024-03-02T12:20:06;10.27;;;8.37;;
3841;SDS011;1936;47.074;15.336;2024-03-02T12:22:14;10.57;;;9.47;;
3841;SDS011;1936;47.074;15.336;2024-03-02T12:24:18;8.53;;;7.67;;
3841;SDS011;1936;47.074;15.336;2024-03-02T12:26:21;10.47;;;9.37;;